Hlavní strana
METAR-TAF:

METAR-TAF

Letiště :

Letiště Franjo Tuđmana

Záhřeb, Chorvatsko

zeměpisná šířka: 45-44N, zeměpisná délka: 016-04E, výška: 106 m

Aktuální stav počasí

Zpráva byla vytvořena před 16 minutami, v 16:30 UTC
Východojihovýchodní vítr 3 kt
Teplota 0°C
Vlhkost vzduchu 80%
Tlak 1025 hPa
Viditelnost: 8000 m

METAR: LDZA 171630Z 12003KT 8000 NSC 00/M03 Q1025 NOSIG

Čas: 17:46 (16:46 UTC)

Předpověď počasí

Zpráva byla vytvořena před 5 hodinami a 21 minutami, v 11:25 UTC
Předpověď platná od 17 v 12 UTC do 18 v 12 UTC
Severovýchodní vítr 3 kt
Viditelnost 10 km a více
Žádná oblačnost pod 1500 m, nevyskytují se cumulonimby.
Změna
od 17 v 19 UTC do 17 v 21 UTC
Viditelnost: 3000 m
kouřmo
Pravděpodobnost 40%
od 17 v 23 UTC do 18 v 12 UTC
Viditelnost: 0200 m
ve výšce 100 ft
mrznoucí mlha

TAF: LDZA 171125Z 1712/1812 05003KT CAVOK TX01/1712Z TNM08/1805Z BECMG 1719/1721 3000 BR PROB40 1723/1812 0200 FZFG VV001

Stav a předpovědi počasí z více než 4 000 letišť (zprávy METAR a TAF).

Červené a žluté tečky na mapě představují dostupné meteorologické stanice.

Když kurzor umístíte na tečku, zobrazí se název stanice.

Pak kliknutím zobrazíte stav a předpověď počasí.

Chcete-li změnit mapu, kliknutím na zelené tlačítko se znaménkem +mapu přiblížíte, kliknutím na zelené tlačítko se znaménkem – mapu oddálíte a kliknutím na zelené šipky přejdete na sousední mapy.


METAR-TAF: